createdAt,value
2018-09-17T00:02:23.455Z,99.90
2018-09-17T00:04:51.063Z,99.90
2018-09-17T00:07:18.836Z,99.90
2018-09-17T00:09:46.445Z,99.90
2018-09-17T00:12:14.123Z,99.90
2018-09-17T00:14:41.741Z,99.90
2018-09-17T00:17:09.357Z,99.90
2018-09-17T00:19:36.935Z,99.90
2018-09-17T00:22:04.644Z,99.90
2018-09-17T00:24:32.392Z,99.90
2018-09-17T00:26:59.971Z,99.90
2018-09-17T00:29:27.536Z,99.90
2018-09-17T00:31:55.620Z,99.90
2018-09-17T00:34:23.202Z,99.90
2018-09-17T00:36:50.765Z,99.90
2018-09-17T00:39:18.366Z,99.90
2018-09-17T00:41:46.080Z,99.90
2018-09-17T00:44:13.678Z,99.90
2018-09-17T00:46:41.244Z,99.90
2018-09-17T00:49:08.812Z,99.90
2018-09-17T00:51:36.468Z,99.90
2018-09-17T00:54:05.065Z,99.90
2018-09-17T00:56:32.637Z,99.90
2018-09-17T00:59:00.280Z,99.90
2018-09-17T01:01:27.840Z,99.90
2018-09-17T01:03:55.504Z,99.90
2018-09-17T01:06:23.100Z,99.90
2018-09-17T01:08:50.643Z,99.90
2018-09-17T01:11:18.201Z,99.90
2018-09-17T01:13:45.888Z,99.90
2018-09-17T01:16:13.475Z,99.90
2018-09-17T01:18:41.029Z,99.90
2018-09-17T01:21:09.137Z,99.90
2018-09-17T01:23:37.433Z,99.90
2018-09-17T01:26:06.089Z,99.90
2018-09-17T01:28:33.715Z,99.90
2018-09-17T01:31:01.300Z,99.90
2018-09-17T01:33:28.871Z,99.90
2018-09-17T01:35:56.457Z,99.90
2018-09-17T01:38:25.060Z,99.90
2018-09-17T01:40:52.789Z,99.90
2018-09-17T01:43:20.433Z,99.90
2018-09-17T01:45:48.220Z,99.90
2018-09-17T01:48:15.793Z,99.90
2018-09-17T01:50:43.343Z,99.90
2018-09-17T01:53:10.928Z,99.90
2018-09-17T01:55:38.469Z,99.90
2018-09-17T01:58:06.092Z,99.90
2018-09-17T02:00:33.780Z,99.90
2018-09-17T02:03:02.374Z,99.90
2018-09-17T02:05:29.976Z,99.90
2018-09-17T02:07:57.536Z,99.90
2018-09-17T02:10:26.144Z,99.90
2018-09-17T02:12:53.736Z,99.90
2018-09-17T02:15:21.325Z,99.90
2018-09-17T02:17:48.915Z,99.90
2018-09-17T02:20:16.500Z,99.90
2018-09-17T02:22:44.156Z,99.90
2018-09-17T02:25:11.748Z,99.90
2018-09-17T02:27:39.359Z,99.90
2018-09-17T02:30:06.993Z,99.90
2018-09-17T02:32:34.620Z,99.90
2018-09-17T02:35:02.188Z,99.90
2018-09-17T02:37:29.772Z,99.90
2018-09-17T02:39:57.336Z,99.90
2018-09-17T02:42:24.912Z,99.90
2018-09-17T02:44:52.508Z,99.90
2018-09-17T02:47:20.080Z,99.90
2018-09-17T02:49:47.691Z,99.90
2018-09-17T02:52:15.286Z,99.90
2018-09-17T02:54:43.072Z,99.90
2018-09-17T02:57:11.118Z,99.90
2018-09-17T02:59:38.684Z,99.90
2018-09-17T03:02:06.289Z,99.90
2018-09-17T03:04:33.920Z,99.90
2018-09-17T03:07:01.484Z,99.90
2018-09-17T03:09:29.069Z,99.90
2018-09-17T03:11:56.782Z,99.90
2018-09-17T03:14:27.735Z,99.90
2018-09-17T03:17:05.420Z,99.90
2018-09-17T03:19:33.164Z,99.90
2018-09-17T03:22:00.727Z,99.90
2018-09-17T03:24:28.357Z,99.90
2018-09-17T03:26:56.005Z,99.90
2018-09-17T03:29:23.596Z,99.90
2018-09-17T03:31:51.152Z,99.90
2018-09-17T03:34:19.258Z,99.90
2018-09-17T03:36:46.834Z,99.90
2018-09-17T03:39:14.413Z,99.90
2018-09-17T03:41:43.104Z,99.90
2018-09-17T03:44:11.123Z,99.90
2018-09-17T03:46:38.755Z,99.90
2018-09-17T03:49:07.148Z,99.90
2018-09-17T03:51:34.852Z,99.90
2018-09-17T03:54:02.457Z,99.90
2018-09-17T03:56:30.013Z,99.90
2018-09-17T03:58:57.564Z,99.90
2018-09-17T04:01:25.135Z,99.90
2018-09-17T04:03:52.776Z,99.90
2018-09-17T04:06:20.360Z,99.90
2018-09-17T04:08:47.963Z,99.90
2018-09-17T04:11:15.507Z,99.90
2018-09-17T04:13:43.080Z,99.90
2018-09-17T04:16:11.360Z,99.90
2018-09-17T04:18:38.968Z,99.90
2018-09-17T04:21:06.556Z,99.90
2018-09-17T04:23:35.176Z,99.90
2018-09-17T04:26:04.060Z,99.90
2018-09-17T04:28:31.818Z,99.90
2018-09-17T04:31:00.073Z,99.90
2018-09-17T04:33:29.556Z,99.90
2018-09-17T04:35:57.148Z,99.90
2018-09-17T04:38:24.773Z,99.90
2018-09-17T04:40:52.582Z,99.90
2018-09-17T04:43:20.157Z,99.90
2018-09-17T04:45:48.024Z,99.90
2018-09-17T04:48:15.635Z,99.90
2018-09-17T04:50:43.224Z,99.90
2018-09-17T04:53:10.792Z,99.90
2018-09-17T04:55:39.436Z,99.90
2018-09-17T04:58:08.178Z,99.90
2018-09-17T05:00:35.779Z,99.90
2018-09-17T05:03:03.384Z,99.90
2018-09-17T05:05:30.972Z,99.90
2018-09-17T05:07:58.544Z,99.90
2018-09-17T05:10:26.112Z,99.90
2018-09-17T05:12:53.730Z,99.90
2018-09-17T05:15:21.305Z,99.90
2018-09-17T05:17:49.372Z,99.90
2018-09-17T05:20:17.017Z,99.90
2018-09-17T05:22:44.597Z,99.90
2018-09-17T05:25:12.960Z,99.90
2018-09-17T05:27:40.597Z,99.90
2018-09-17T05:30:09.008Z,99.90
2018-09-17T05:32:37.370Z,99.90
2018-09-17T05:35:05.068Z,99.90
2018-09-17T05:37:32.646Z,99.90
2018-09-17T05:40:01.257Z,99.90
2018-09-17T05:42:28.865Z,99.90
2018-09-17T05:44:56.456Z,99.90
2018-09-17T05:47:24.268Z,99.90
2018-09-17T05:49:51.828Z,99.90
2018-09-17T05:52:19.447Z,99.90
2018-09-17T05:54:47.077Z,99.90
2018-09-17T05:57:14.698Z,99.90
2018-09-17T05:59:42.991Z,99.90
2018-09-17T06:02:10.532Z,99.90
2018-09-17T06:04:39.100Z,99.90
2018-09-17T06:07:06.733Z,99.90
2018-09-17T06:09:34.382Z,99.90
2018-09-17T06:12:01.962Z,99.90
2018-09-17T06:14:29.662Z,99.90
2018-09-17T06:16:57.277Z,99.90
2018-09-17T06:19:24.914Z,99.90
2018-09-17T06:21:52.588Z,99.90
2018-09-17T06:24:20.188Z,99.90
2018-09-17T06:26:47.857Z,99.90
2018-09-17T06:29:15.456Z,99.90
2018-09-17T06:31:43.604Z,99.90
2018-09-17T06:34:11.227Z,99.90
2018-09-17T06:36:38.796Z,99.90
2018-09-17T06:39:07.567Z,99.90
2018-09-17T06:41:35.185Z,99.90
2018-09-17T06:44:02.824Z,99.90
2018-09-17T06:46:31.466Z,99.90
2018-09-17T06:48:59.076Z,99.90
2018-09-17T06:51:27.736Z,99.90
2018-09-17T06:53:55.680Z,99.90
2018-09-17T06:56:23.257Z,99.90
2018-09-17T06:58:50.900Z,99.90
2018-09-17T07:01:18.530Z,99.90
2018-09-17T07:03:46.576Z,99.90
2018-09-17T07:06:14.219Z,99.90
2018-09-17T07:08:41.829Z,99.90
2018-09-17T07:11:10.051Z,99.90
2018-09-17T07:13:37.637Z,99.90
2018-09-17T07:16:05.283Z,99.90
2018-09-17T07:18:32.908Z,99.90
2018-09-17T07:21:01.328Z,99.90
2018-09-17T07:23:28.949Z,99.90
2018-09-17T07:25:56.909Z,99.90
2018-09-17T07:28:24.498Z,99.90
2018-09-17T07:30:52.097Z,99.90
2018-09-17T07:33:19.744Z,99.90
2018-09-17T07:35:47.364Z,99.90
2018-09-17T07:38:14.988Z,99.90
2018-09-17T07:40:42.600Z,99.90
2018-09-17T07:43:10.292Z,99.90
2018-09-17T07:45:37.885Z,99.90
2018-09-17T07:48:05.576Z,99.90
2018-09-17T07:50:33.112Z,99.90
2018-09-17T07:53:00.741Z,99.90
2018-09-17T07:55:28.325Z,99.90
2018-09-17T07:57:55.927Z,99.90
2018-09-17T08:00:23.520Z,99.90
2018-09-17T08:02:51.113Z,99.90
2018-09-17T08:05:18.672Z,99.90
2018-09-17T08:07:47.678Z,99.90
2018-09-17T08:10:20.292Z,99.90
2018-09-17T08:12:48.529Z,99.90
2018-09-17T08:15:17.864Z,99.90
2018-09-17T08:17:45.528Z,99.90
2018-09-17T08:20:13.085Z,99.90
2018-09-17T08:22:40.853Z,99.90
2018-09-17T08:25:09.204Z,99.90
2018-09-17T08:27:36.825Z,99.90
2018-09-17T08:30:04.636Z,99.90
2018-09-17T08:32:32.766Z,99.90
2018-09-17T08:35:00.358Z,99.90
2018-09-17T08:37:27.932Z,99.90
2018-09-17T08:39:55.521Z,99.90
2018-09-17T08:42:23.089Z,99.90
2018-09-17T08:44:51.705Z,99.90
2018-09-17T08:47:19.301Z,99.90
2018-09-17T08:49:47.060Z,99.90
2018-09-17T08:52:15.365Z,99.90
2018-09-17T08:54:48.752Z,99.90
2018-09-17T08:57:22.033Z,99.90
2018-09-17T09:00:58.289Z,99.90
2018-09-17T09:03:29.122Z,99.90
2018-09-17T09:06:02.297Z,99.90
2018-09-17T09:08:29.897Z,99.90
2018-09-17T09:11:03.041Z,99.90
2018-09-17T09:13:33.624Z,99.90
2018-09-17T09:16:01.765Z,99.90
2018-09-17T09:18:29.866Z,99.90
2018-09-17T09:20:57.924Z,99.90
2018-09-17T09:23:26.529Z,99.90
2018-09-17T09:25:54.099Z,99.90
2018-09-17T09:28:21.680Z,99.90
2018-09-17T09:30:49.347Z,99.90
2018-09-17T09:33:16.883Z,99.90
2018-09-17T09:35:45.143Z,99.90
2018-09-17T09:38:12.765Z,99.90
2018-09-17T09:40:40.429Z,99.90
2018-09-17T09:43:07.981Z,99.90
2018-09-17T09:45:35.552Z,99.90
2018-09-17T09:48:03.213Z,99.90
2018-09-17T09:50:30.773Z,99.90
2018-09-17T09:52:59.000Z,99.90
2018-09-17T09:55:26.560Z,99.90
2018-09-17T09:57:54.140Z,99.90
2018-09-17T10:00:27.368Z,99.90
2018-09-17T10:03:01.798Z,99.90
2018-09-17T10:05:29.763Z,99.90
2018-09-17T10:07:57.320Z,99.90
2018-09-17T10:10:31.423Z,99.90
2018-09-17T10:13:04.612Z,99.90
2018-09-17T10:15:34.724Z,99.90
2018-09-17T10:18:08.126Z,99.90
2018-09-17T10:20:35.700Z,99.90
2018-09-17T10:23:03.240Z,99.90
2018-09-17T10:25:31.444Z,99.90
2018-09-17T10:27:58.999Z,99.90
2018-09-17T10:30:26.564Z,99.90
2018-09-17T10:32:54.137Z,99.90
2018-09-17T10:35:21.724Z,99.90
2018-09-17T10:37:49.309Z,99.90
2018-09-17T10:40:16.872Z,99.90
2018-09-17T10:42:44.456Z,99.90
2018-09-17T10:45:12.004Z,99.90
2018-09-17T10:47:40.580Z,99.90
2018-09-17T10:50:08.156Z,99.90
2018-09-17T10:52:35.777Z,99.90
2018-09-17T10:55:03.376Z,99.90
2018-09-17T10:57:30.953Z,99.90
2018-09-17T10:59:58.526Z,99.90
2018-09-17T11:02:26.107Z,99.90
2018-09-17T11:04:53.739Z,99.90
2018-09-17T11:07:21.314Z,99.90
2018-09-17T11:09:48.877Z,99.90
2018-09-17T11:12:16.477Z,99.90
2018-09-17T11:14:44.056Z,99.90
2018-09-17T11:17:11.641Z,99.90
2018-09-17T11:19:39.275Z,99.90
2018-09-17T11:22:06.840Z,99.90
2018-09-17T11:24:34.393Z,99.90
2018-09-17T11:27:01.985Z,99.90
2018-09-17T11:29:29.563Z,99.90
2018-09-17T11:31:57.159Z,99.90
2018-09-17T11:34:24.717Z,99.90
2018-09-17T11:36:52.286Z,99.90
2018-09-17T11:39:19.854Z,99.90
2018-09-17T11:41:47.478Z,99.90
2018-09-17T11:44:15.073Z,99.90
2018-09-17T11:46:42.628Z,99.90
2018-09-17T11:49:10.200Z,99.90
2018-09-17T11:51:37.766Z,99.90
2018-09-17T11:54:05.449Z,99.90
2018-09-17T11:56:32.978Z,99.90
2018-09-17T11:59:00.530Z,99.90
2018-09-17T12:01:33.741Z,99.90
2018-09-17T12:04:06.924Z,99.90
2018-09-17T12:06:40.294Z,99.90
2018-09-17T12:09:09.100Z,99.90
2018-09-17T12:11:36.840Z,99.90
2018-09-17T12:14:04.411Z,99.90
2018-09-17T12:16:32.012Z,99.90
2018-09-17T12:18:59.577Z,99.90
2018-09-17T12:21:27.617Z,99.90
2018-09-17T12:23:55.269Z,99.90
2018-09-17T12:26:22.864Z,99.90
2018-09-17T12:28:50.410Z,99.90
2018-09-17T12:31:17.997Z,99.90
2018-09-17T12:33:45.648Z,99.90
2018-09-17T12:36:13.529Z,99.90
2018-09-17T12:38:41.161Z,99.90
2018-09-17T12:41:08.737Z,99.90
2018-09-17T12:43:37.269Z,99.90
2018-09-17T12:46:05.055Z,99.90
2018-09-17T12:48:32.627Z,99.60
2018-09-17T12:51:00.391Z,99.70
2018-09-17T12:53:28.022Z,96.30
2018-09-17T12:55:55.597Z,94.30
2018-09-17T12:58:23.185Z,91.40
2018-09-17T13:00:50.824Z,91.30
2018-09-17T13:03:19.430Z,85.40
2018-09-17T13:05:48.100Z,80.80
2018-09-17T13:08:15.676Z,79.50
2018-09-17T13:10:43.365Z,79.20
2018-09-17T13:13:10.908Z,83.60
2018-09-17T13:15:44.184Z,79.60
2018-09-17T13:18:11.840Z,78.10
2018-09-17T13:20:39.820Z,74.90
2018-09-17T13:23:07.484Z,75.90
2018-09-17T13:25:35.097Z,72.60
2018-09-17T13:28:02.756Z,71.40
2018-09-17T13:30:30.353Z,69.00
2018-09-17T13:35:56.561Z,67.80
2018-09-17T13:38:23.774Z,67.20
2018-09-17T13:40:50.992Z,64.00
2018-09-17T13:43:18.228Z,62.90
2018-09-17T13:45:45.534Z,63.10
2018-09-17T13:48:12.738Z,66.40
2018-09-17T13:50:40.426Z,64.40
2018-09-17T13:53:07.713Z,65.90
2018-09-17T13:55:34.897Z,63.50
2018-09-17T13:58:02.140Z,64.40
2018-09-17T14:00:29.454Z,67.00
2018-09-17T14:02:56.880Z,66.80
2018-09-17T14:05:24.145Z,66.50
2018-09-17T14:07:51.383Z,63.80
2018-09-17T14:10:18.721Z,63.30
2018-09-17T14:12:45.840Z,61.30
2018-09-17T14:15:13.076Z,60.90
2018-09-17T14:17:40.287Z,57.20
2018-09-17T14:20:07.529Z,56.70
2018-09-17T14:22:34.786Z,59.00
2018-09-17T14:25:02.099Z,58.50
2018-09-17T14:27:29.372Z,57.10
2018-09-17T14:29:56.640Z,57.60
2018-09-17T14:32:29.572Z,58.30
2018-09-17T14:34:56.788Z,56.50
2018-09-17T14:37:24.037Z,55.10
2018-09-17T14:39:51.260Z,55.00
2018-09-17T14:42:18.504Z,57.10
2018-09-17T14:44:45.786Z,55.70
2018-09-17T14:47:13.011Z,56.90
2018-09-17T14:49:40.239Z,56.60
2018-09-17T14:52:07.444Z,55.80
2018-09-17T14:54:34.744Z,55.20
2018-09-17T14:57:01.885Z,56.50
2018-09-17T14:59:29.148Z,55.50
2018-09-17T15:01:56.437Z,55.30
2018-09-17T15:04:23.790Z,52.90
2018-09-17T15:06:51.008Z,55.80
2018-09-17T15:09:18.203Z,57.20
2018-09-17T15:11:45.445Z,55.70
2018-09-17T15:14:12.861Z,56.20
2018-09-17T15:16:40.304Z,56.30
2018-09-17T15:19:07.584Z,56.20
2018-09-17T15:21:34.817Z,54.90
2018-09-17T15:24:02.193Z,55.60
2018-09-17T15:26:29.402Z,55.40
2018-09-17T15:28:56.636Z,54.60
2018-09-17T15:31:23.982Z,56.40
2018-09-17T15:33:51.068Z,59.00
2018-09-17T15:36:18.369Z,58.10
2018-09-17T15:38:45.610Z,58.30
2018-09-17T15:41:12.943Z,57.40
2018-09-17T15:43:41.081Z,59.30
2018-09-17T15:46:08.574Z,59.50
2018-09-17T15:48:35.762Z,58.90
2018-09-17T15:51:02.976Z,60.50
2018-09-17T15:53:30.187Z,59.70
2018-09-17T15:55:57.580Z,60.40
2018-09-17T15:58:24.910Z,61.00
2018-09-17T16:00:52.155Z,59.70
2018-09-17T16:03:19.364Z,61.70
2018-09-17T16:05:46.644Z,60.70
2018-09-17T16:08:13.853Z,60.10
2018-09-17T16:10:41.261Z,59.60
2018-09-17T16:13:08.485Z,60.00
2018-09-17T16:15:35.963Z,60.00
2018-09-17T16:18:03.532Z,60.30
2018-09-17T16:20:30.756Z,60.00
2018-09-17T16:22:57.987Z,58.90
2018-09-17T16:25:25.202Z,59.20
2018-09-17T16:27:52.614Z,59.70
2018-09-17T16:30:19.830Z,59.20
2018-09-17T16:32:47.044Z,59.30
2018-09-17T16:35:14.286Z,60.10
2018-09-17T16:37:41.535Z,60.10
2018-09-17T16:40:08.759Z,65.70
2018-09-17T16:42:36.000Z,69.90
2018-09-17T16:45:03.259Z,74.00
2018-09-17T16:47:30.463Z,77.70
2018-09-17T16:49:57.681Z,81.50
2018-09-17T16:52:25.906Z,84.70
2018-09-17T16:54:53.125Z,90.10
2018-09-17T16:57:20.333Z,92.40
2018-09-17T16:59:47.571Z,94.30
2018-09-17T17:02:14.801Z,97.30
2018-09-17T17:04:42.055Z,99.90
2018-09-17T17:07:09.325Z,99.90
2018-09-17T17:09:36.558Z,99.90
2018-09-17T17:12:03.773Z,99.90
2018-09-17T17:14:31.025Z,99.90
2018-09-17T17:16:58.268Z,99.90
2018-09-17T17:19:25.474Z,99.90
2018-09-17T17:21:52.777Z,99.90
2018-09-17T17:24:20.000Z,99.90
2018-09-17T17:26:47.185Z,99.90
2018-09-17T17:29:14.472Z,99.90
2018-09-17T17:31:41.697Z,99.90
2018-09-17T17:34:08.984Z,99.90
2018-09-17T17:36:36.186Z,99.90
2018-09-17T17:39:06.732Z,99.90
2018-09-17T17:41:33.937Z,99.90
2018-09-17T17:44:01.224Z,99.90
2018-09-17T17:46:28.495Z,99.90
2018-09-17T17:48:55.716Z,99.90
2018-09-17T17:51:22.940Z,99.90
2018-09-17T17:53:50.175Z,99.90
2018-09-17T17:56:17.530Z,99.90
2018-09-17T17:58:44.745Z,99.90
2018-09-17T18:01:12.083Z,99.90
2018-09-17T18:03:39.202Z,99.90
2018-09-17T18:06:06.444Z,99.90
2018-09-17T18:08:33.637Z,99.90
2018-09-17T18:11:00.884Z,99.90
2018-09-17T18:13:28.194Z,99.90
2018-09-17T18:15:55.699Z,99.90
2018-09-17T18:18:22.925Z,99.90
2018-09-17T18:20:50.134Z,99.90
2018-09-17T18:23:17.448Z,99.90
2018-09-17T18:25:44.672Z,99.90
2018-09-17T18:28:11.921Z,99.90
2018-09-17T18:30:39.140Z,99.90
2018-09-17T18:33:06.410Z,99.90
2018-09-17T18:35:33.636Z,99.90
2018-09-17T18:38:00.869Z,99.90
2018-09-17T18:40:28.105Z,99.90
2018-09-17T18:42:55.394Z,99.90
2018-09-17T18:45:22.615Z,99.90
2018-09-17T18:47:50.846Z,99.90
2018-09-17T18:50:18.170Z,99.90
2018-09-17T18:52:46.395Z,99.90
2018-09-17T18:55:13.803Z,99.90
2018-09-17T18:57:41.089Z,99.90
2018-09-17T19:00:08.682Z,99.90
2018-09-17T19:02:35.994Z,99.90
2018-09-17T19:05:03.357Z,99.90
2018-09-17T19:07:30.652Z,99.90
2018-09-17T19:09:57.980Z,99.90
2018-09-17T19:12:25.463Z,99.90
2018-09-17T19:14:58.329Z,99.90
2018-09-17T19:17:43.450Z,99.90
2018-09-17T19:20:11.474Z,99.90
2018-09-17T19:22:44.860Z,99.90
2018-09-17T19:25:14.379Z,99.90
2018-09-17T19:27:47.286Z,99.90
2018-09-17T19:30:15.089Z,99.90
2018-09-17T19:32:42.576Z,99.90
2018-09-17T19:35:10.523Z,99.90
2018-09-17T19:37:43.733Z,99.90
2018-09-17T19:40:20.490Z,99.90
2018-09-17T19:42:48.639Z,99.90
2018-09-17T19:45:21.735Z,99.90
2018-09-17T19:47:49.840Z,99.90
2018-09-17T19:50:22.838Z,99.90
2018-09-17T19:52:50.699Z,99.90
2018-09-17T19:55:17.949Z,99.90
2018-09-17T19:57:50.926Z,99.90
2018-09-17T20:00:18.224Z,99.90
2018-09-17T20:02:45.476Z,99.90
2018-09-17T20:05:18.557Z,99.90
2018-09-17T20:07:45.837Z,99.90
2018-09-17T20:10:13.199Z,99.90
2018-09-17T20:12:40.424Z,99.90
2018-09-17T20:15:07.828Z,99.90
2018-09-17T20:17:35.369Z,99.90
2018-09-17T20:20:02.616Z,99.90
2018-09-17T20:22:29.840Z,99.90
2018-09-17T20:24:57.068Z,99.90
2018-09-17T20:27:24.337Z,99.90
2018-09-17T20:29:51.596Z,99.90
2018-09-17T20:32:18.856Z,99.90
2018-09-17T20:34:46.111Z,99.90
2018-09-17T20:37:13.353Z,99.90
2018-09-17T20:39:40.592Z,99.90
2018-09-17T20:42:07.888Z,99.90
2018-09-17T20:44:35.109Z,99.90
2018-09-17T20:47:03.399Z,99.90
2018-09-17T20:49:30.712Z,99.90
2018-09-17T20:51:57.908Z,99.90
2018-09-17T20:54:25.173Z,99.90
2018-09-17T20:56:54.000Z,99.90
2018-09-17T20:59:21.241Z,99.90
2018-09-17T21:01:48.560Z,99.90
2018-09-17T21:04:15.778Z,99.90
2018-09-17T21:06:43.009Z,99.90
2018-09-17T21:09:17.587Z,99.90
2018-09-17T21:11:46.220Z,99.90
2018-09-17T21:14:14.047Z,99.90
2018-09-17T21:16:41.260Z,99.90
2018-09-17T21:19:08.526Z,99.90
2018-09-17T21:21:35.785Z,99.90
2018-09-17T21:24:03.276Z,99.90
2018-09-17T21:26:30.488Z,99.90
2018-09-17T21:28:57.736Z,99.90
2018-09-17T21:31:24.938Z,99.90
2018-09-17T21:33:52.228Z,99.90
2018-09-17T21:36:20.149Z,99.90
2018-09-17T21:38:47.383Z,99.90
2018-09-17T21:41:14.672Z,99.90
2018-09-17T21:43:41.892Z,99.90
2018-09-17T21:46:09.584Z,99.90
2018-09-17T21:48:36.812Z,99.90
2018-09-17T21:51:04.046Z,99.90
2018-09-17T21:53:31.282Z,99.90
2018-09-17T21:55:58.492Z,99.90
2018-09-17T21:58:25.775Z,99.90
2018-09-17T22:00:59.127Z,99.90
2018-09-17T22:03:26.448Z,99.90
2018-09-17T22:05:53.672Z,99.90
2018-09-17T22:08:21.196Z,99.90
2018-09-17T22:10:48.471Z,99.90
2018-09-17T22:13:15.714Z,99.90
2018-09-17T22:15:43.029Z,99.90
2018-09-17T22:18:10.227Z,99.90
2018-09-17T22:20:37.460Z,99.90
2018-09-17T22:23:04.740Z,99.90
2018-09-17T22:25:33.809Z,99.90
2018-09-17T22:28:01.172Z,99.90
2018-09-17T22:30:28.405Z,99.90
2018-09-17T22:32:55.638Z,99.90
2018-09-17T22:35:22.960Z,99.90
2018-09-17T22:37:50.172Z,99.90
2018-09-17T22:40:17.368Z,99.90
2018-09-17T22:42:44.812Z,99.90
2018-09-17T22:45:12.053Z,99.90
2018-09-17T22:47:39.261Z,99.90
2018-09-17T22:50:06.554Z,99.90
2018-09-17T22:52:33.821Z,99.90
2018-09-17T22:55:01.064Z,99.90
2018-09-17T22:57:28.304Z,99.90
2018-09-17T22:59:55.544Z,99.90
2018-09-17T23:02:22.806Z,99.90
2018-09-17T23:16:21.809Z,99.90
2018-09-17T23:18:49.060Z,99.90
2018-09-17T23:21:16.259Z,99.90
2018-09-17T23:23:43.465Z,99.90
2018-09-17T23:26:10.723Z,99.90
2018-09-17T23:28:37.952Z,99.90
2018-09-17T23:31:05.166Z,99.90
2018-09-17T23:33:32.388Z,99.90
2018-09-17T23:35:59.604Z,99.90
2018-09-17T23:38:26.795Z,99.90
2018-09-17T23:40:54.036Z,99.90
2018-09-17T23:43:21.284Z,99.90
2018-09-17T23:45:48.526Z,99.90
2018-09-17T23:48:15.728Z,99.90
2018-09-17T23:50:43.445Z,99.90
2018-09-17T23:53:10.643Z,99.90
2018-09-17T23:55:37.868Z,99.90
2018-09-17T23:58:05.137Z,99.90
